sensor_id;sensor_type;location;lat;lon;timestamp;pressure;altitude;pressure_sealevel;temperature;humidity
51926;BME280;37952;51.938;15.480;2023-05-22T00:03:03;100035.50;;;19.22;48.25
51926;BME280;37952;51.938;15.480;2023-05-22T00:06:06;100036.58;;;19.18;48.43
51926;BME280;37952;51.938;15.480;2023-05-22T00:09:13;100034.41;;;19.14;48.66
51926;BME280;37952;51.938;15.480;2023-05-22T00:12:16;100032.28;;;19.08;48.78
51926;BME280;37952;51.938;15.480;2023-05-22T00:15:19;100033.34;;;19.02;48.76
51926;BME280;37952;51.938;15.480;2023-05-22T00:18:22;100032.25;;;19.00;49.26
51926;BME280;37952;51.938;15.480;2023-05-22T00:21:28;100029.31;;;18.99;49.58
51926;BME280;37952;51.938;15.480;2023-05-22T00:24:35;100024.52;;;18.95;49.47
51926;BME280;37952;51.938;15.480;2023-05-22T00:27:38;100022.30;;;18.92;49.35
51926;BME280;37952;51.938;15.480;2023-05-22T00:30:41;100021.60;;;18.84;49.62
51926;BME280;37952;51.938;15.480;2023-05-22T00:33:44;100018.23;;;18.77;49.61
51926;BME280;37952;51.938;15.480;2023-05-22T00:36:46;100017.65;;;18.72;49.76
51926;BME280;37952;51.938;15.480;2023-05-22T00:39:49;100016.25;;;18.68;49.60
51926;BME280;37952;51.938;15.480;2023-05-22T00:42:52;100017.95;;;18.61;49.45
51926;BME280;37952;51.938;15.480;2023-05-22T00:45:55;100021.39;;;18.58;49.91
51926;BME280;37952;51.938;15.480;2023-05-22T00:48:58;100016.31;;;18.59;49.68
51926;BME280;37952;51.938;15.480;2023-05-22T00:52:01;100012.80;;;18.55;49.54
51926;BME280;37952;51.938;15.480;2023-05-22T00:55:04;100012.85;;;18.52;50.09
51926;BME280;37952;51.938;15.480;2023-05-22T00:58:09;100015.70;;;18.52;50.10
51926;BME280;37952;51.938;15.480;2023-05-22T01:01:15;100012.09;;;18.51;50.05
51926;BME280;37952;51.938;15.480;2023-05-22T01:04:19;100012.73;;;18.45;49.82
51926;BME280;37952;51.938;15.480;2023-05-22T01:07:23;100015.29;;;18.43;50.09
51926;BME280;37952;51.938;15.480;2023-05-22T01:10:27;100013.36;;;18.38;49.55
51926;BME280;37952;51.938;15.480;2023-05-22T01:20:20;100014.59;;;18.33;49.64
51926;BME280;37952;51.938;15.480;2023-05-22T01:23:45;100011.91;;;18.30;49.30
51926;BME280;37952;51.938;15.480;2023-05-22T01:33:57;100007.89;;;18.05;49.50
51926;BME280;37952;51.938;15.480;2023-05-22T01:37:03;100006.95;;;17.97;49.50
51926;BME280;37952;51.938;15.480;2023-05-22T01:40:07;100007.86;;;17.97;49.75
51926;BME280;37952;51.938;15.480;2023-05-22T01:43:12;100012.69;;;17.94;49.89
51926;BME280;37952;51.938;15.480;2023-05-22T01:46:15;100011.61;;;17.91;50.03
51926;BME280;37952;51.938;15.480;2023-05-22T01:49:17;100012.74;;;17.86;50.00
51926;BME280;37952;51.938;15.480;2023-05-22T01:52:35;100013.60;;;17.90;49.93
51926;BME280;37952;51.938;15.480;2023-05-22T01:56:00;100014.14;;;17.98;49.91
51926;BME280;37952;51.938;15.480;2023-05-22T01:59:14;100007.86;;;17.97;49.91
51926;BME280;37952;51.938;15.480;2023-05-22T02:02:20;100002.49;;;17.93;49.84
51926;BME280;37952;51.938;15.480;2023-05-22T02:05:25;100004.20;;;17.92;49.99
51926;BME280;37952;51.938;15.480;2023-05-22T02:08:31;100002.20;;;17.82;50.11
51926;BME280;37952;51.938;15.480;2023-05-22T02:11:36;100005.13;;;17.68;50.38
51926;BME280;37952;51.938;15.480;2023-05-22T02:14:41;100002.79;;;17.65;50.33
51926;BME280;37952;51.938;15.480;2023-05-22T02:17:44;100003.16;;;17.66;50.44
51926;BME280;37952;51.938;15.480;2023-05-22T02:20:47;99997.84;;;17.68;50.39
51926;BME280;37952;51.938;15.480;2023-05-22T02:23:50;99994.95;;;17.73;50.44
51926;BME280;37952;51.938;15.480;2023-05-22T02:26:53;99995.41;;;17.67;50.58
51926;BME280;37952;51.938;15.480;2023-05-22T02:29:55;99993.61;;;17.62;50.66
51926;BME280;37952;51.938;15.480;2023-05-22T02:32:58;99998.20;;;17.62;50.57
51926;BME280;37952;51.938;15.480;2023-05-22T02:36:01;99998.88;;;17.62;50.44
51926;BME280;37952;51.938;15.480;2023-05-22T02:39:04;99998.29;;;17.61;50.58
51926;BME280;37952;51.938;15.480;2023-05-22T02:42:07;99992.83;;;17.48;50.90
51926;BME280;37952;51.938;15.480;2023-05-22T02:45:10;99991.82;;;17.45;50.77
51926;BME280;37952;51.938;15.480;2023-05-22T02:48:12;99994.65;;;17.43;51.20
51926;BME280;37952;51.938;15.480;2023-05-22T02:51:15;99993.31;;;17.36;51.21
51926;BME280;37952;51.938;15.480;2023-05-22T02:54:18;99993.44;;;17.28;51.46
51926;BME280;37952;51.938;15.480;2023-05-22T02:57:20;99993.27;;;17.24;51.45
51926;BME280;37952;51.938;15.480;2023-05-22T03:00:23;99992.98;;;17.25;51.49
51926;BME280;37952;51.938;15.480;2023-05-22T03:03:26;99990.21;;;17.24;51.50
51926;BME280;37952;51.938;15.480;2023-05-22T03:06:31;99993.00;;;17.20;51.50
51926;BME280;37952;51.938;15.480;2023-05-22T03:09:33;99986.08;;;17.22;51.41
51926;BME280;37952;51.938;15.480;2023-05-22T03:12:36;99986.23;;;17.22;51.47
51926;BME280;37952;51.938;15.480;2023-05-22T03:15:39;99986.66;;;17.17;51.43
51926;BME280;37952;51.938;15.480;2023-05-22T03:18:41;99984.70;;;17.11;51.70
51926;BME280;37952;51.938;15.480;2023-05-22T03:21:44;99985.02;;;17.09;51.79
51926;BME280;37952;51.938;15.480;2023-05-22T03:24:47;99983.20;;;17.10;51.47
51926;BME280;37952;51.938;15.480;2023-05-22T03:27:49;99982.94;;;17.08;51.62
51926;BME280;37952;51.938;15.480;2023-05-22T03:30:52;99980.34;;;17.08;51.72
51926;BME280;37952;51.938;15.480;2023-05-22T03:33:55;99984.83;;;17.00;51.60
51926;BME280;37952;51.938;15.480;2023-05-22T03:36:58;99981.12;;;17.00;51.72
51926;BME280;37952;51.938;15.480;2023-05-22T03:40:01;99980.17;;;16.97;51.86
51926;BME280;37952;51.938;15.480;2023-05-22T03:43:05;99984.13;;;16.90;52.04
51926;BME280;37952;51.938;15.480;2023-05-22T03:46:07;99985.70;;;16.92;51.83
51926;BME280;37952;51.938;15.480;2023-05-22T03:49:12;99987.28;;;16.94;51.64
51926;BME280;37952;51.938;15.480;2023-05-22T03:52:14;99989.69;;;17.00;51.68
51926;BME280;37952;51.938;15.480;2023-05-22T03:55:17;99986.35;;;17.04;51.59
51926;BME280;37952;51.938;15.480;2023-05-22T03:58:19;99985.70;;;17.05;51.47
51926;BME280;37952;51.938;15.480;2023-05-22T04:01:22;99983.42;;;17.04;51.53
51926;BME280;37952;51.938;15.480;2023-05-22T04:04:26;99985.56;;;17.04;51.42
51926;BME280;37952;51.938;15.480;2023-05-22T04:07:29;99984.16;;;16.94;51.91
51926;BME280;37952;51.938;15.480;2023-05-22T04:10:33;99990.09;;;16.93;51.50
51926;BME280;37952;51.938;15.480;2023-05-22T04:13:39;99988.33;;;16.99;51.72
51926;BME280;37952;51.938;15.480;2023-05-22T04:16:41;99990.88;;;16.96;51.61
51926;BME280;37952;51.938;15.480;2023-05-22T04:19:45;99991.15;;;16.99;51.74
51926;BME280;37952;51.938;15.480;2023-05-22T04:22:47;99987.79;;;16.93;51.93
51926;BME280;37952;51.938;15.480;2023-05-22T04:25:50;99987.15;;;16.85;51.99
51926;BME280;37952;51.938;15.480;2023-05-22T04:28:53;99989.74;;;16.86;51.97
51926;BME280;37952;51.938;15.480;2023-05-22T04:31:55;99986.90;;;16.90;51.94
51926;BME280;37952;51.938;15.480;2023-05-22T04:35:05;99985.38;;;16.98;51.92
51926;BME280;37952;51.938;15.480;2023-05-22T04:38:08;99985.84;;;16.90;51.95
51926;BME280;37952;51.938;15.480;2023-05-22T04:41:11;99987.16;;;16.87;52.12
51926;BME280;37952;51.938;15.480;2023-05-22T04:44:14;99987.39;;;16.87;52.21
51926;BME280;37952;51.938;15.480;2023-05-22T04:47:18;99989.09;;;16.90;51.94
51926;BME280;37952;51.938;15.480;2023-05-22T04:50:21;99986.98;;;16.90;52.00
51926;BME280;37952;51.938;15.480;2023-05-22T04:53:25;99988.30;;;16.87;51.99
51926;BME280;37952;51.938;15.480;2023-05-22T04:56:29;99990.96;;;16.89;51.88
51926;BME280;37952;51.938;15.480;2023-05-22T04:59:38;99995.60;;;16.93;51.86
51926;BME280;37952;51.938;15.480;2023-05-22T05:02:42;99994.58;;;16.99;51.74
51926;BME280;37952;51.938;15.480;2023-05-22T05:05:45;99989.48;;;17.05;51.65
51926;BME280;37952;51.938;15.480;2023-05-22T05:08:49;99990.90;;;17.04;51.63
51926;BME280;37952;51.938;15.480;2023-05-22T05:11:53;99996.63;;;17.06;51.44
51926;BME280;37952;51.938;15.480;2023-05-22T05:14:56;99998.58;;;17.06;51.45
51926;BME280;37952;51.938;15.480;2023-05-22T05:17:59;99999.64;;;17.04;51.33
51926;BME280;37952;51.938;15.480;2023-05-22T05:21:01;99998.95;;;17.06;51.39
51926;BME280;37952;51.938;15.480;2023-05-22T05:24:05;99998.88;;;17.14;51.38
51926;BME280;37952;51.938;15.480;2023-05-22T05:27:07;100001.21;;;17.24;51.36
51926;BME280;37952;51.938;15.480;2023-05-22T05:30:13;100001.12;;;17.36;50.90
51926;BME280;37952;51.938;15.480;2023-05-22T05:33:18;99998.98;;;17.40;50.75
51926;BME280;37952;51.938;15.480;2023-05-22T05:36:22;100002.71;;;17.36;50.75
51926;BME280;37952;51.938;15.480;2023-05-22T05:39:25;99998.54;;;17.33;50.80
51926;BME280;37952;51.938;15.480;2023-05-22T05:42:28;100000.20;;;17.37;50.80
51926;BME280;37952;51.938;15.480;2023-05-22T05:45:30;100003.38;;;17.43;50.83
51926;BME280;37952;51.938;15.480;2023-05-22T05:48:33;100004.63;;;17.56;50.67
51926;BME280;37952;51.938;15.480;2023-05-22T05:51:37;100006.70;;;17.63;50.62
51926;BME280;37952;51.938;15.480;2023-05-22T05:54:39;100005.64;;;17.68;50.49
51926;BME280;37952;51.938;15.480;2023-05-22T05:57:47;100004.79;;;17.74;50.50
51926;BME280;37952;51.938;15.480;2023-05-22T06:00:50;100004.09;;;17.74;50.44
51926;BME280;37952;51.938;15.480;2023-05-22T06:03:55;100006.42;;;17.76;50.54
51926;BME280;37952;51.938;15.480;2023-05-22T06:07:00;100009.20;;;17.73;50.47
51926;BME280;37952;51.938;15.480;2023-05-22T06:10:04;100003.09;;;17.72;50.77
51926;BME280;37952;51.938;15.480;2023-05-22T06:13:07;100000.78;;;17.73;50.78
51926;BME280;37952;51.938;15.480;2023-05-22T06:16:09;100002.00;;;17.76;50.60
51926;BME280;37952;51.938;15.480;2023-05-22T06:19:13;100003.77;;;17.78;50.59
51926;BME280;37952;51.938;15.480;2023-05-22T06:22:16;100001.35;;;17.79;50.48
51926;BME280;37952;51.938;15.480;2023-05-22T06:25:18;100000.31;;;17.83;50.35
51926;BME280;37952;51.938;15.480;2023-05-22T06:28:21;100000.69;;;17.87;50.43
51926;BME280;37952;51.938;15.480;2023-05-22T06:31:24;99996.09;;;17.95;50.46
51926;BME280;37952;51.938;15.480;2023-05-22T06:34:27;99998.08;;;18.01;50.42
51926;BME280;37952;51.938;15.480;2023-05-22T06:37:31;99994.28;;;18.07;50.18
51926;BME280;37952;51.938;15.480;2023-05-22T06:40:37;99996.27;;;18.13;50.03
51926;BME280;37952;51.938;15.480;2023-05-22T06:43:40;99997.80;;;18.20;49.94
51926;BME280;37952;51.938;15.480;2023-05-22T06:46:42;99997.59;;;18.27;49.97
51926;BME280;37952;51.938;15.480;2023-05-22T06:49:45;99997.34;;;18.34;49.65
51926;BME280;37952;51.938;15.480;2023-05-22T06:52:48;99999.34;;;18.39;49.50
51926;BME280;37952;51.938;15.480;2023-05-22T06:55:50;100000.50;;;18.46;49.48
51926;BME280;37952;51.938;15.480;2023-05-22T06:58:53;100001.52;;;18.53;49.09
51926;BME280;37952;51.938;15.480;2023-05-22T07:01:56;100000.27;;;18.59;49.22
51926;BME280;37952;51.938;15.480;2023-05-22T07:04:58;99995.02;;;18.64;49.12
51926;BME280;37952;51.938;15.480;2023-05-22T07:08:01;99988.05;;;18.70;49.19
51926;BME280;37952;51.938;15.480;2023-05-22T07:11:04;99993.04;;;18.76;48.89
51926;BME280;37952;51.938;15.480;2023-05-22T07:14:09;99992.55;;;18.83;48.58
51926;BME280;37952;51.938;15.480;2023-05-22T07:17:14;99994.67;;;18.91;47.94
51926;BME280;37952;51.938;15.480;2023-05-22T07:20:16;99996.14;;;18.97;46.75
51926;BME280;37952;51.938;15.480;2023-05-22T07:23:19;99990.64;;;19.02;47.02
51926;BME280;37952;51.938;15.480;2023-05-22T07:26:22;99991.88;;;19.08;46.88
51926;BME280;37952;51.938;15.480;2023-05-22T07:29:25;99987.61;;;19.14;46.49
51926;BME280;37952;51.938;15.480;2023-05-22T07:32:28;99988.30;;;19.20;46.33
51926;BME280;37952;51.938;15.480;2023-05-22T07:35:31;99985.88;;;19.26;46.37
51926;BME280;37952;51.938;15.480;2023-05-22T07:38:33;99986.75;;;19.33;46.75
51926;BME280;37952;51.938;15.480;2023-05-22T07:41:36;99987.86;;;19.38;46.68
51926;BME280;37952;51.938;15.480;2023-05-22T07:44:39;99983.96;;;19.42;45.96
51926;BME280;37952;51.938;15.480;2023-05-22T07:47:42;99993.33;;;19.46;45.58
51926;BME280;37952;51.938;15.480;2023-05-22T07:50:45;99990.05;;;19.53;45.16
51926;BME280;37952;51.938;15.480;2023-05-22T07:53:47;99993.74;;;19.58;45.74
51926;BME280;37952;51.938;15.480;2023-05-22T07:56:51;99996.67;;;19.61;45.85
51926;BME280;37952;51.938;15.480;2023-05-22T07:59:54;99998.20;;;19.63;45.71
51926;BME280;37952;51.938;15.480;2023-05-22T08:02:57;99996.11;;;19.69;46.05
51926;BME280;37952;51.938;15.480;2023-05-22T08:05:59;99996.86;;;19.72;45.78
51926;BME280;37952;51.938;15.480;2023-05-22T08:09:02;99998.20;;;19.75;45.18
51926;BME280;37952;51.938;15.480;2023-05-22T08:12:06;99999.14;;;19.80;44.82
51926;BME280;37952;51.938;15.480;2023-05-22T08:15:10;99996.19;;;19.83;44.39
51926;BME280;37952;51.938;15.480;2023-05-22T08:18:13;99994.93;;;19.86;43.65
51926;BME280;37952;51.938;15.480;2023-05-22T08:21:16;99995.23;;;19.89;44.17
51926;BME280;37952;51.938;15.480;2023-05-22T08:24:18;99998.11;;;19.93;43.17
51926;BME280;37952;51.938;15.480;2023-05-22T08:27:21;99997.27;;;19.94;41.80
51926;BME280;37952;51.938;15.480;2023-05-22T08:30:24;99995.52;;;19.97;43.23
51926;BME280;37952;51.938;15.480;2023-05-22T08:33:26;99994.14;;;19.97;42.43
51926;BME280;37952;51.938;15.480;2023-05-22T08:36:29;99990.52;;;19.97;41.42
51926;BME280;37952;51.938;15.480;2023-05-22T08:39:33;99991.55;;;19.99;41.65
51926;BME280;37952;51.938;15.480;2023-05-22T08:42:35;99989.81;;;20.03;41.68
51926;BME280;37952;51.938;15.480;2023-05-22T08:45:38;99988.41;;;20.07;40.87
51926;BME280;37952;51.938;15.480;2023-05-22T08:48:44;99985.55;;;20.12;40.84
51926;BME280;37952;51.938;15.480;2023-05-22T08:51:53;99980.04;;;20.17;40.74
51926;BME280;37952;51.938;15.480;2023-05-22T08:54:58;99979.40;;;20.20;40.10
51926;BME280;37952;51.938;15.480;2023-05-22T08:58:02;99980.59;;;20.24;40.22
51926;BME280;37952;51.938;15.480;2023-05-22T09:01:06;99979.25;;;20.29;38.91
51926;BME280;37952;51.938;15.480;2023-05-22T09:04:10;99971.16;;;20.35;38.86
51926;BME280;37952;51.938;15.480;2023-05-22T09:07:13;99967.21;;;20.39;38.88
51926;BME280;37952;51.938;15.480;2023-05-22T09:10:15;99965.86;;;20.42;37.35
51926;BME280;37952;51.938;15.480;2023-05-22T09:13:30;99966.91;;;20.47;38.90
51926;BME280;37952;51.938;15.480;2023-05-22T09:16:43;99962.89;;;20.52;38.53
51926;BME280;37952;51.938;15.480;2023-05-22T09:19:46;99958.50;;;20.56;37.47
51926;BME280;37952;51.938;15.480;2023-05-22T09:22:49;99952.70;;;20.64;39.14
51926;BME280;37952;51.938;15.480;2023-05-22T09:25:56;99951.58;;;20.67;38.28
51926;BME280;37952;51.938;15.480;2023-05-22T09:28:59;99947.53;;;20.69;37.46
51926;BME280;37952;51.938;15.480;2023-05-22T09:32:12;99946.84;;;20.72;37.65
51926;BME280;37952;51.938;15.480;2023-05-22T09:35:15;99946.59;;;20.70;35.88
51926;BME280;37952;51.938;15.480;2023-05-22T09:38:18;99952.02;;;20.71;37.43
51926;BME280;37952;51.938;15.480;2023-05-22T09:41:23;99949.73;;;20.70;38.34
51926;BME280;37952;51.938;15.480;2023-05-22T09:44:25;99948.30;;;20.69;37.74
51926;BME280;37952;51.938;15.480;2023-05-22T09:47:28;99950.41;;;20.68;37.82
51926;BME280;37952;51.938;15.480;2023-05-22T09:50:31;99942.64;;;20.67;37.42
51926;BME280;37952;51.938;15.480;2023-05-22T09:53:34;99936.74;;;20.64;37.29
51926;BME280;37952;51.938;15.480;2023-05-22T09:56:39;99940.75;;;20.66;37.53
51926;BME280;37952;51.938;15.480;2023-05-22T09:59:43;99932.48;;;20.68;37.68
51926;BME280;37952;51.938;15.480;2023-05-22T10:02:57;99932.33;;;20.71;38.30
51926;BME280;37952;51.938;15.480;2023-05-22T10:06:01;99928.50;;;20.75;38.71
51926;BME280;37952;51.938;15.480;2023-05-22T10:09:06;99930.17;;;20.80;38.30
51926;BME280;37952;51.938;15.480;2023-05-22T10:12:16;99921.98;;;20.86;38.35
51926;BME280;37952;51.938;15.480;2023-05-22T10:15:22;99920.11;;;20.93;37.34
51926;BME280;37952;51.938;15.480;2023-05-22T10:18:25;99916.58;;;21.02;37.54
51926;BME280;37952;51.938;15.480;2023-05-22T10:21:32;99916.65;;;21.08;37.55
51926;BME280;37952;51.938;15.480;2023-05-22T10:24:38;99909.29;;;21.11;38.07
51926;BME280;37952;51.938;15.480;2023-05-22T10:27:43;99911.19;;;21.16;36.47
51926;BME280;37952;51.938;15.480;2023-05-22T10:34:33;99907.92;;;21.27;36.92
51926;BME280;37952;51.938;15.480;2023-05-22T10:37:49;99898.56;;;21.31;35.36
51926;BME280;37952;51.938;15.480;2023-05-22T10:40:53;99891.14;;;21.38;34.96
51926;BME280;37952;51.938;15.480;2023-05-22T10:43:57;99891.66;;;21.44;34.79
51926;BME280;37952;51.938;15.480;2023-05-22T10:47:07;99892.19;;;21.49;35.66
51926;BME280;37952;51.938;15.480;2023-05-22T10:50:11;99897.71;;;21.54;34.04
51926;BME280;37952;51.938;15.480;2023-05-22T10:53:27;99895.11;;;21.57;34.71
51926;BME280;37952;51.938;15.480;2023-05-22T10:56:33;99889.23;;;21.58;34.74
51926;BME280;37952;51.938;15.480;2023-05-22T10:59:36;99889.17;;;21.59;34.32
51926;BME280;37952;51.938;15.480;2023-05-22T11:02:41;99883.72;;;21.63;35.24
51926;BME280;37952;51.938;15.480;2023-05-22T11:05:51;99884.18;;;21.67;35.31
51926;BME280;37952;51.938;15.480;2023-05-22T11:08:54;99885.19;;;21.71;34.94
51926;BME280;37952;51.938;15.480;2023-05-22T11:12:16;99875.11;;;21.75;35.78
51926;BME280;37952;51.938;15.480;2023-05-22T11:15:29;99879.60;;;21.79;35.63
51926;BME280;37952;51.938;15.480;2023-05-22T11:18:33;99869.69;;;21.82;35.96
51926;BME280;37952;51.938;15.480;2023-05-22T11:21:46;99869.55;;;21.87;35.56
51926;BME280;37952;51.938;15.480;2023-05-22T11:24:49;99864.76;;;21.95;34.97
51926;BME280;37952;51.938;15.480;2023-05-22T11:27:53;99864.88;;;22.06;34.76
51926;BME280;37952;51.938;15.480;2023-05-22T11:30:56;99862.11;;;22.15;35.36
51926;BME280;37952;51.938;15.480;2023-05-22T11:33:59;99866.60;;;22.20;35.66
51926;BME280;37952;51.938;15.480;2023-05-22T11:37:02;99862.59;;;22.24;33.44
51926;BME280;37952;51.938;15.480;2023-05-22T11:40:05;99861.80;;;22.33;33.57
51926;BME280;37952;51.938;15.480;2023-05-22T11:43:09;99856.57;;;22.38;34.33
51926;BME280;37952;51.938;15.480;2023-05-22T11:46:12;99850.94;;;22.42;33.32
51926;BME280;37952;51.938;15.480;2023-05-22T11:49:16;99845.02;;;22.49;33.92
51926;BME280;37952;51.938;15.480;2023-05-22T11:52:19;99843.05;;;22.53;34.39
51926;BME280;37952;51.938;15.480;2023-05-22T11:55:22;99839.04;;;22.57;34.24
51926;BME280;37952;51.938;15.480;2023-05-22T11:58:26;99837.85;;;22.63;33.58
51926;BME280;37952;51.938;15.480;2023-05-22T12:01:31;99836.42;;;22.70;33.20
51926;BME280;37952;51.938;15.480;2023-05-22T12:04:33;99831.61;;;22.78;33.40
51926;BME280;37952;51.938;15.480;2023-05-22T12:07:36;99823.36;;;22.81;33.37
51926;BME280;37952;51.938;15.480;2023-05-22T12:10:45;99829.97;;;22.89;33.63
51926;BME280;37952;51.938;15.480;2023-05-22T12:13:59;99826.21;;;22.94;33.31
51926;BME280;37952;51.938;15.480;2023-05-22T12:17:02;99822.25;;;22.97;31.89
51926;BME280;37952;51.938;15.480;2023-05-22T12:20:06;99823.29;;;23.01;31.66
51926;BME280;37952;51.938;15.480;2023-05-22T12:23:25;99821.82;;;23.05;32.44
51926;BME280;37952;51.938;15.480;2023-05-22T12:26:28;99821.32;;;23.07;32.59
51926;BME280;37952;51.938;15.480;2023-05-22T12:29:31;99819.70;;;23.11;33.20
51926;BME280;37952;51.938;15.480;2023-05-22T12:32:38;99817.08;;;23.12;33.30
51926;BME280;37952;51.938;15.480;2023-05-22T12:35:41;99810.45;;;23.10;32.64
51926;BME280;37952;51.938;15.480;2023-05-22T12:38:44;99811.27;;;23.15;32.66
51926;BME280;37952;51.938;15.480;2023-05-22T12:41:47;99812.00;;;23.18;32.22
51926;BME280;37952;51.938;15.480;2023-05-22T12:44:52;99811.17;;;23.21;31.13
51926;BME280;37952;51.938;15.480;2023-05-22T12:47:55;99805.09;;;23.26;31.30
51926;BME280;37952;51.938;15.480;2023-05-22T12:50:58;99801.83;;;23.30;31.21
51926;BME280;37952;51.938;15.480;2023-05-22T12:54:02;99799.19;;;23.38;31.12
51926;BME280;37952;51.938;15.480;2023-05-22T12:57:05;99799.67;;;23.47;30.61
51926;BME280;37952;51.938;15.480;2023-05-22T13:00:08;99796.70;;;23.55;30.78
51926;BME280;37952;51.938;15.480;2023-05-22T13:03:11;99794.81;;;23.64;31.02
51926;BME280;37952;51.938;15.480;2023-05-22T13:06:14;99784.44;;;23.72;30.29
51926;BME280;37952;51.938;15.480;2023-05-22T13:09:17;99785.36;;;23.79;31.37
51926;BME280;37952;51.938;15.480;2023-05-22T13:12:21;99791.02;;;23.86;30.92
51926;BME280;37952;51.938;15.480;2023-05-22T13:15:25;99785.88;;;23.91;30.69
51926;BME280;37952;51.938;15.480;2023-05-22T13:18:31;99786.36;;;23.98;29.52
51926;BME280;37952;51.938;15.480;2023-05-22T13:21:33;99783.00;;;24.04;30.36
51926;BME280;37952;51.938;15.480;2023-05-22T13:24:36;99778.54;;;24.08;29.82
51926;BME280;37952;51.938;15.480;2023-05-22T13:27:39;99778.38;;;24.13;29.82
51926;BME280;37952;51.938;15.480;2023-05-22T13:30:42;99780.86;;;24.18;30.23
51926;BME280;37952;51.938;15.480;2023-05-22T13:33:44;99783.75;;;24.24;29.96
51926;BME280;37952;51.938;15.480;2023-05-22T13:36:48;99779.77;;;24.29;29.74
51926;BME280;37952;51.938;15.480;2023-05-22T13:39:51;99773.80;;;24.32;29.48
51926;BME280;37952;51.938;15.480;2023-05-22T13:42:53;99759.38;;;24.29;29.66
51926;BME280;37952;51.938;15.480;2023-05-22T13:45:56;99775.73;;;24.41;29.77
51926;BME280;37952;51.938;15.480;2023-05-22T13:48:59;99770.36;;;24.49;30.20
51926;BME280;37952;51.938;15.480;2023-05-22T13:52:04;99771.50;;;24.62;29.96
51926;BME280;37952;51.938;15.480;2023-05-22T13:55:07;99767.70;;;24.73;28.90
51926;BME280;37952;51.938;15.480;2023-05-22T13:58:10;99768.38;;;24.92;29.03
51926;BME280;37952;51.938;15.480;2023-05-22T14:01:13;99768.48;;;25.13;27.78
51926;BME280;37952;51.938;15.480;2023-05-22T14:04:16;99760.45;;;25.32;27.87
51926;BME280;37952;51.938;15.480;2023-05-22T14:07:18;99754.85;;;25.42;28.39
51926;BME280;37952;51.938;15.480;2023-05-22T14:10:21;99750.80;;;25.41;29.03
51926;BME280;37952;51.938;15.480;2023-05-22T14:13:24;99752.17;;;25.31;29.73
51926;BME280;37952;51.938;15.480;2023-05-22T14:16:26;99747.88;;;25.19;29.87
51926;BME280;37952;51.938;15.480;2023-05-22T14:19:29;99749.04;;;25.08;30.32
51926;BME280;37952;51.938;15.480;2023-05-22T14:22:32;99749.77;;;24.90;30.65
51926;BME280;37952;51.938;15.480;2023-05-22T14:25:49;99747.80;;;24.72;30.49
51926;BME280;37952;51.938;15.480;2023-05-22T14:28:52;99738.17;;;24.55;29.77
51926;BME280;37952;51.938;15.480;2023-05-22T14:32:01;99742.34;;;24.38;30.16
51926;BME280;37952;51.938;15.480;2023-05-22T14:35:08;99741.04;;;24.23;29.77
51926;BME280;37952;51.938;15.480;2023-05-22T14:38:11;99743.33;;;24.14;30.27
51926;BME280;37952;51.938;15.480;2023-05-22T14:41:14;99738.52;;;24.07;30.78
51926;BME280;37952;51.938;15.480;2023-05-22T14:44:17;99732.33;;;24.08;30.68
51926;BME280;37952;51.938;15.480;2023-05-22T14:47:21;99734.44;;;24.07;29.99
51926;BME280;37952;51.938;15.480;2023-05-22T14:50:23;99731.73;;;24.07;30.44
51926;BME280;37952;51.938;15.480;2023-05-22T14:53:26;99732.55;;;24.06;30.87
51926;BME280;37952;51.938;15.480;2023-05-22T14:56:29;99723.33;;;24.03;30.45
51926;BME280;37952;51.938;15.480;2023-05-22T14:59:31;99722.90;;;24.02;30.30
51926;BME280;37952;51.938;15.480;2023-05-22T15:02:35;99719.23;;;24.04;30.19
51926;BME280;37952;51.938;15.480;2023-05-22T15:05:39;99716.95;;;24.10;29.99
51926;BME280;37952;51.938;15.480;2023-05-22T15:08:42;99714.14;;;24.19;30.38
51926;BME280;37952;51.938;15.480;2023-05-22T15:11:44;99712.84;;;24.33;30.84
51926;BME280;37952;51.938;15.480;2023-05-22T15:14:50;99711.05;;;24.45;30.94
51926;BME280;37952;51.938;15.480;2023-05-22T15:17:52;99710.46;;;24.51;30.26
51926;BME280;37952;51.938;15.480;2023-05-22T15:20:55;99709.69;;;24.55;30.44
51926;BME280;37952;51.938;15.480;2023-05-22T15:23:58;99706.68;;;24.63;30.93
51926;BME280;37952;51.938;15.480;2023-05-22T15:27:00;99702.35;;;24.77;30.70
51926;BME280;37952;51.938;15.480;2023-05-22T15:30:04;99705.33;;;24.91;30.31
51926;BME280;37952;51.938;15.480;2023-05-22T15:33:07;99695.25;;;25.03;29.97
51926;BME280;37952;51.938;15.480;2023-05-22T15:36:10;99693.96;;;25.15;30.04
51926;BME280;37952;51.938;15.480;2023-05-22T15:39:13;99696.11;;;25.27;29.54
51926;BME280;37952;51.938;15.480;2023-05-22T15:42:16;99689.73;;;25.33;29.95
51926;BME280;37952;51.938;15.480;2023-05-22T15:45:19;99688.64;;;25.36;29.85
51926;BME280;37952;51.938;15.480;2023-05-22T15:48:22;99682.36;;;25.36;29.64
51926;BME280;37952;51.938;15.480;2023-05-22T15:51:24;99683.86;;;25.34;29.95
51926;BME280;37952;51.938;15.480;2023-05-22T15:54:27;99680.99;;;25.34;29.88
51926;BME280;37952;51.938;15.480;2023-05-22T15:57:30;99677.86;;;25.36;30.18
51926;BME280;37952;51.938;15.480;2023-05-22T16:00:32;99668.58;;;25.41;30.38
51926;BME280;37952;51.938;15.480;2023-05-22T16:03:40;99666.86;;;25.46;30.24
51926;BME280;37952;51.938;15.480;2023-05-22T16:06:43;99664.88;;;25.50;29.60
51926;BME280;37952;51.938;15.480;2023-05-22T16:09:45;99662.38;;;25.53;29.13
51926;BME280;37952;51.938;15.480;2023-05-22T16:12:48;99659.57;;;25.54;29.26
51926;BME280;37952;51.938;15.480;2023-05-22T16:15:51;99658.38;;;25.57;29.16
51926;BME280;37952;51.938;15.480;2023-05-22T16:18:53;99657.95;;;25.61;29.43